sensor_id;sensor_type;location;lat;lon;timestamp;P1;durP1;ratioP1;P2;durP2;ratioP2
82787;SDS011;72529;51.786;4.662;2023-08-30T00:00:09;7.61;;;7.53;;
82787;SDS011;72529;51.786;4.662;2023-08-30T00:02:35;7.33;;;7.23;;
82787;SDS011;72529;51.786;4.662;2023-08-30T00:05:02;7.71;;;7.65;;
82787;SDS011;72529;51.786;4.662;2023-08-30T00:07:28;7.83;;;7.74;;
82787;SDS011;72529;51.786;4.662;2023-08-30T00:09:55;8.22;;;8.18;;
82787;SDS011;72529;51.786;4.662;2023-08-30T00:12:21;8.20;;;8.09;;
82787;SDS011;72529;51.786;4.662;2023-08-30T00:14:47;8.13;;;8.05;;
82787;SDS011;72529;51.786;4.662;2023-08-30T00:17:13;7.72;;;7.69;;
82787;SDS011;72529;51.786;4.662;2023-08-30T00:19:38;8.06;;;7.97;;
82787;SDS011;72529;51.786;4.662;2023-08-30T00:22:04;8.36;;;8.23;;
82787;SDS011;72529;51.786;4.662;2023-08-30T00:24:32;8.38;;;8.29;;
82787;SDS011;72529;51.786;4.662;2023-08-30T00:26:58;8.32;;;8.24;;
82787;SDS011;72529;51.786;4.662;2023-08-30T00:29:24;8.59;;;8.43;;
82787;SDS011;72529;51.786;4.662;2023-08-30T00:31:49;8.39;;;8.25;;
82787;SDS011;72529;51.786;4.662;2023-08-30T00:34:14;8.59;;;8.49;;
82787;SDS011;72529;51.786;4.662;2023-08-30T00:36:40;8.33;;;8.21;;
82787;SDS011;72529;51.786;4.662;2023-08-30T00:39:05;8.46;;;8.36;;
82787;SDS011;72529;51.786;4.662;2023-08-30T00:41:31;8.80;;;8.72;;
82787;SDS011;72529;51.786;4.662;2023-08-30T00:43:56;8.57;;;8.50;;
82787;SDS011;72529;51.786;4.662;2023-08-30T00:46:22;8.51;;;8.31;;
82787;SDS011;72529;51.786;4.662;2023-08-30T00:48:48;7.84;;;7.73;;
82787;SDS011;72529;51.786;4.662;2023-08-30T00:51:13;7.95;;;7.81;;
82787;SDS011;72529;51.786;4.662;2023-08-30T00:53:39;7.76;;;7.65;;
82787;SDS011;72529;51.786;4.662;2023-08-30T00:56:05;7.83;;;7.72;;
82787;SDS011;72529;51.786;4.662;2023-08-30T00:58:30;7.67;;;7.60;;
82787;SDS011;72529;51.786;4.662;2023-08-30T01:00:56;8.06;;;8.00;;
82787;SDS011;72529;51.786;4.662;2023-08-30T01:03:23;8.14;;;8.06;;
82787;SDS011;72529;51.786;4.662;2023-08-30T01:05:49;7.57;;;7.49;;
82787;SDS011;72529;51.786;4.662;2023-08-30T01:08:14;7.82;;;7.74;;
82787;SDS011;72529;51.786;4.662;2023-08-30T01:13:09;8.55;;;8.43;;
82787;SDS011;72529;51.786;4.662;2023-08-30T01:15:38;8.15;;;8.03;;
82787;SDS011;72529;51.786;4.662;2023-08-30T01:18:06;8.87;;;8.71;;
82787;SDS011;72529;51.786;4.662;2023-08-30T01:20:35;8.58;;;8.41;;
82787;SDS011;72529;51.786;4.662;2023-08-30T01:23:23;8.67;;;8.50;;
82787;SDS011;72529;51.786;4.662;2023-08-30T01:26:09;9.03;;;8.81;;
82787;SDS011;72529;51.786;4.662;2023-08-30T01:28:39;8.85;;;8.68;;
82787;SDS011;72529;51.786;4.662;2023-08-30T01:31:06;8.79;;;8.63;;
82787;SDS011;72529;51.786;4.662;2023-08-30T01:33:34;8.77;;;8.60;;
82787;SDS011;72529;51.786;4.662;2023-08-30T01:36:01;9.13;;;8.93;;
82787;SDS011;72529;51.786;4.662;2023-08-30T01:38:29;9.43;;;9.18;;
82787;SDS011;72529;51.786;4.662;2023-08-30T01:40:57;9.32;;;9.15;;
82787;SDS011;72529;51.786;4.662;2023-08-30T01:43:26;9.37;;;9.21;;
82787;SDS011;72529;51.786;4.662;2023-08-30T01:45:56;9.90;;;9.75;;
82787;SDS011;72529;51.786;4.662;2023-08-30T01:48:22;9.99;;;9.85;;
82787;SDS011;72529;51.786;4.662;2023-08-30T01:50:50;10.75;;;10.53;;
82787;SDS011;72529;51.786;4.662;2023-08-30T01:53:16;10.94;;;10.68;;
82787;SDS011;72529;51.786;4.662;2023-08-30T01:55:42;11.14;;;10.97;;
82787;SDS011;72529;51.786;4.662;2023-08-30T01:58:08;10.96;;;10.81;;
82787;SDS011;72529;51.786;4.662;2023-08-30T02:00:35;12.20;;;11.95;;
82787;SDS011;72529;51.786;4.662;2023-08-30T02:03:06;11.90;;;11.66;;
82787;SDS011;72529;51.786;4.662;2023-08-30T02:05:35;12.30;;;12.08;;
82787;SDS011;72529;51.786;4.662;2023-08-30T02:08:16;11.41;;;11.27;;
82787;SDS011;72529;51.786;4.662;2023-08-30T02:10:45;11.61;;;11.41;;
82787;SDS011;72529;51.786;4.662;2023-08-30T02:13:18;11.78;;;11.61;;
82787;SDS011;72529;51.786;4.662;2023-08-30T02:15:49;11.91;;;11.68;;
82787;SDS011;72529;51.786;4.662;2023-08-30T02:18:20;11.67;;;11.52;;
82787;SDS011;72529;51.786;4.662;2023-08-30T02:20:45;11.31;;;11.24;;
82787;SDS011;72529;51.786;4.662;2023-08-30T02:23:12;11.70;;;11.66;;
82787;SDS011;72529;51.786;4.662;2023-08-30T02:25:37;11.72;;;11.60;;
82787;SDS011;72529;51.786;4.662;2023-08-30T02:28:03;12.04;;;11.94;;
82787;SDS011;72529;51.786;4.662;2023-08-30T02:30:28;12.23;;;12.15;;
82787;SDS011;72529;51.786;4.662;2023-08-30T02:32:54;12.25;;;12.13;;
82787;SDS011;72529;51.786;4.662;2023-08-30T02:35:20;12.50;;;12.36;;
82787;SDS011;72529;51.786;4.662;2023-08-30T02:37:45;12.44;;;12.36;;
82787;SDS011;72529;51.786;4.662;2023-08-30T02:40:11;12.64;;;12.47;;
82787;SDS011;72529;51.786;4.662;2023-08-30T02:42:36;12.50;;;12.32;;
82787;SDS011;72529;51.786;4.662;2023-08-30T02:45:02;13.42;;;13.31;;
82787;SDS011;72529;51.786;4.662;2023-08-30T02:47:27;12.88;;;12.72;;
82787;SDS011;72529;51.786;4.662;2023-08-30T02:49:53;12.67;;;12.49;;
82787;SDS011;72529;51.786;4.662;2023-08-30T02:52:18;13.16;;;12.98;;
82787;SDS011;72529;51.786;4.662;2023-08-30T02:54:44;13.02;;;12.79;;
82787;SDS011;72529;51.786;4.662;2023-08-30T02:57:09;12.60;;;12.42;;
82787;SDS011;72529;51.786;4.662;2023-08-30T02:59:35;11.85;;;11.72;;
82787;SDS011;72529;51.786;4.662;2023-08-30T03:02:00;12.91;;;12.76;;
82787;SDS011;72529;51.786;4.662;2023-08-30T03:04:25;12.52;;;12.36;;
82787;SDS011;72529;51.786;4.662;2023-08-30T03:06:52;12.70;;;12.50;;
82787;SDS011;72529;51.786;4.662;2023-08-30T03:09:18;12.66;;;12.44;;
82787;SDS011;72529;51.786;4.662;2023-08-30T03:11:43;12.52;;;12.30;;
82787;SDS011;72529;51.786;4.662;2023-08-30T03:14:09;13.23;;;13.11;;
82787;SDS011;72529;51.786;4.662;2023-08-30T03:16:34;13.43;;;13.29;;
82787;SDS011;72529;51.786;4.662;2023-08-30T03:19:00;13.45;;;13.31;;
82787;SDS011;72529;51.786;4.662;2023-08-30T03:21:25;13.44;;;13.27;;
82787;SDS011;72529;51.786;4.662;2023-08-30T03:23:51;12.86;;;12.69;;
82787;SDS011;72529;51.786;4.662;2023-08-30T03:26:16;13.27;;;13.09;;
82787;SDS011;72529;51.786;4.662;2023-08-30T03:28:43;13.16;;;13.00;;
82787;SDS011;72529;51.786;4.662;2023-08-30T03:31:13;13.31;;;13.04;;
82787;SDS011;72529;51.786;4.662;2023-08-30T03:33:42;13.06;;;12.94;;
82787;SDS011;72529;51.786;4.662;2023-08-30T03:36:12;12.80;;;12.70;;
82787;SDS011;72529;51.786;4.662;2023-08-30T03:38:39;12.66;;;12.47;;
82787;SDS011;72529;51.786;4.662;2023-08-30T03:41:05;13.01;;;12.81;;
82787;SDS011;72529;51.786;4.662;2023-08-30T03:43:30;11.93;;;11.69;;
82787;SDS011;72529;51.786;4.662;2023-08-30T03:45:57;11.76;;;11.55;;
82787;SDS011;72529;51.786;4.662;2023-08-30T03:48:23;11.81;;;11.63;;
82787;SDS011;72529;51.786;4.662;2023-08-30T03:50:48;12.50;;;12.39;;
82787;SDS011;72529;51.786;4.662;2023-08-30T03:53:14;13.09;;;12.88;;
82787;SDS011;72529;51.786;4.662;2023-08-30T03:55:40;12.79;;;12.65;;
82787;SDS011;72529;51.786;4.662;2023-08-30T03:58:06;12.89;;;12.74;;
82787;SDS011;72529;51.786;4.662;2023-08-30T04:00:31;12.59;;;12.45;;
82787;SDS011;72529;51.786;4.662;2023-08-30T04:02:57;13.04;;;12.91;;
82787;SDS011;72529;51.786;4.662;2023-08-30T04:05:22;12.61;;;12.43;;
82787;SDS011;72529;51.786;4.662;2023-08-30T04:07:47;12.19;;;11.91;;
82787;SDS011;72529;51.786;4.662;2023-08-30T04:10:13;12.30;;;12.08;;
82787;SDS011;72529;51.786;4.662;2023-08-30T04:12:38;13.00;;;12.75;;
82787;SDS011;72529;51.786;4.662;2023-08-30T04:15:04;12.56;;;12.33;;
82787;SDS011;72529;51.786;4.662;2023-08-30T04:17:29;13.01;;;12.80;;
82787;SDS011;72529;51.786;4.662;2023-08-30T04:19:55;12.33;;;12.14;;
82787;SDS011;72529;51.786;4.662;2023-08-30T04:22:20;12.35;;;12.24;;
82787;SDS011;72529;51.786;4.662;2023-08-30T04:24:46;12.66;;;12.55;;
82787;SDS011;72529;51.786;4.662;2023-08-30T04:27:11;12.13;;;12.03;;
82787;SDS011;72529;51.786;4.662;2023-08-30T04:29:37;12.23;;;12.06;;
82787;SDS011;72529;51.786;4.662;2023-08-30T04:32:02;13.19;;;12.98;;
82787;SDS011;72529;51.786;4.662;2023-08-30T04:34:28;12.85;;;12.67;;
82787;SDS011;72529;51.786;4.662;2023-08-30T04:36:55;12.61;;;12.44;;
82787;SDS011;72529;51.786;4.662;2023-08-30T04:39:21;12.52;;;12.34;;
82787;SDS011;72529;51.786;4.662;2023-08-30T04:41:46;12.20;;;12.05;;
82787;SDS011;72529;51.786;4.662;2023-08-30T04:44:12;12.51;;;12.38;;
82787;SDS011;72529;51.786;4.662;2023-08-30T04:46:37;12.92;;;12.73;;
82787;SDS011;72529;51.786;4.662;2023-08-30T04:49:03;12.94;;;12.80;;
82787;SDS011;72529;51.786;4.662;2023-08-30T04:51:28;12.83;;;12.72;;
82787;SDS011;72529;51.786;4.662;2023-08-30T04:53:54;12.98;;;12.78;;
82787;SDS011;72529;51.786;4.662;2023-08-30T04:56:19;12.66;;;12.61;;
82787;SDS011;72529;51.786;4.662;2023-08-30T04:58:45;13.08;;;12.99;;
82787;SDS011;72529;51.786;4.662;2023-08-30T05:01:10;12.59;;;12.49;;
82787;SDS011;72529;51.786;4.662;2023-08-30T05:03:38;12.76;;;12.62;;
82787;SDS011;72529;51.786;4.662;2023-08-30T05:06:04;12.41;;;12.35;;
82787;SDS011;72529;51.786;4.662;2023-08-30T05:08:29;12.56;;;12.38;;
82787;SDS011;72529;51.786;4.662;2023-08-30T05:10:55;12.29;;;12.13;;
82787;SDS011;72529;51.786;4.662;2023-08-30T05:13:21;12.31;;;12.27;;
82787;SDS011;72529;51.786;4.662;2023-08-30T05:15:46;12.64;;;12.54;;
82787;SDS011;72529;51.786;4.662;2023-08-30T05:18:12;11.96;;;11.91;;
82787;SDS011;72529;51.786;4.662;2023-08-30T05:20:37;12.27;;;12.18;;
82787;SDS011;72529;51.786;4.662;2023-08-30T05:23:02;11.79;;;11.71;;
82787;SDS011;72529;51.786;4.662;2023-08-30T05:25:28;11.50;;;11.43;;
82787;SDS011;72529;51.786;4.662;2023-08-30T05:27:53;11.70;;;11.68;;
82787;SDS011;72529;51.786;4.662;2023-08-30T05:30:19;11.77;;;11.69;;
82787;SDS011;72529;51.786;4.662;2023-08-30T05:32:45;11.72;;;11.61;;
82787;SDS011;72529;51.786;4.662;2023-08-30T05:35:10;11.65;;;11.53;;
82787;SDS011;72529;51.786;4.662;2023-08-30T05:37:36;11.42;;;11.23;;
82787;SDS011;72529;51.786;4.662;2023-08-30T05:40:01;10.99;;;10.84;;
82787;SDS011;72529;51.786;4.662;2023-08-30T05:42:27;11.52;;;11.38;;
82787;SDS011;72529;51.786;4.662;2023-08-30T05:44:53;11.96;;;11.84;;
82787;SDS011;72529;51.786;4.662;2023-08-30T05:47:19;10.94;;;10.90;;
82787;SDS011;72529;51.786;4.662;2023-08-30T05:49:45;11.21;;;11.16;;
82787;SDS011;72529;51.786;4.662;2023-08-30T05:52:11;10.68;;;10.52;;
82787;SDS011;72529;51.786;4.662;2023-08-30T05:54:36;10.42;;;10.34;;
82787;SDS011;72529;51.786;4.662;2023-08-30T05:57:02;11.07;;;10.99;;
82787;SDS011;72529;51.786;4.662;2023-08-30T05:59:28;9.47;;;9.47;;
82787;SDS011;72529;51.786;4.662;2023-08-30T06:01:53;9.45;;;9.41;;
82787;SDS011;72529;51.786;4.662;2023-08-30T06:04:19;11.05;;;10.95;;
82787;SDS011;72529;51.786;4.662;2023-08-30T06:06:45;10.95;;;10.79;;
82787;SDS011;72529;51.786;4.662;2023-08-30T06:09:10;11.22;;;11.06;;
82787;SDS011;72529;51.786;4.662;2023-08-30T06:11:37;10.70;;;10.67;;
82787;SDS011;72529;51.786;4.662;2023-08-30T06:14:03;10.44;;;10.35;;
82787;SDS011;72529;51.786;4.662;2023-08-30T06:16:29;11.42;;;11.24;;
82787;SDS011;72529;51.786;4.662;2023-08-30T06:18:55;10.82;;;10.71;;
82787;SDS011;72529;51.786;4.662;2023-08-30T06:21:20;11.71;;;11.55;;
82787;SDS011;72529;51.786;4.662;2023-08-30T06:23:46;11.97;;;11.85;;
82787;SDS011;72529;51.786;4.662;2023-08-30T06:26:11;11.16;;;11.08;;
82787;SDS011;72529;51.786;4.662;2023-08-30T06:28:37;10.72;;;10.65;;
82787;SDS011;72529;51.786;4.662;2023-08-30T06:31:02;10.45;;;10.30;;
82787;SDS011;72529;51.786;4.662;2023-08-30T06:33:28;9.84;;;9.69;;
82787;SDS011;72529;51.786;4.662;2023-08-30T06:35:53;10.13;;;10.00;;
82787;SDS011;72529;51.786;4.662;2023-08-30T06:38:20;10.44;;;10.30;;
82787;SDS011;72529;51.786;4.662;2023-08-30T06:40:46;9.39;;;9.33;;
82787;SDS011;72529;51.786;4.662;2023-08-30T06:43:12;9.31;;;9.30;;
82787;SDS011;72529;51.786;4.662;2023-08-30T06:45:40;9.44;;;9.37;;
82787;SDS011;72529;51.786;4.662;2023-08-30T06:48:07;8.52;;;8.44;;
82787;SDS011;72529;51.786;4.662;2023-08-30T06:50:33;8.51;;;8.40;;
82787;SDS011;72529;51.786;4.662;2023-08-30T06:52:58;7.75;;;7.67;;
82787;SDS011;72529;51.786;4.662;2023-08-30T06:55:24;7.74;;;7.73;;
82787;SDS011;72529;51.786;4.662;2023-08-30T06:57:49;6.95;;;6.94;;
82787;SDS011;72529;51.786;4.662;2023-08-30T07:00:15;6.92;;;6.92;;
82787;SDS011;72529;51.786;4.662;2023-08-30T07:02:41;6.63;;;6.63;;
82787;SDS011;72529;51.786;4.662;2023-08-30T07:05:10;6.23;;;6.18;;
82787;SDS011;72529;51.786;4.662;2023-08-30T07:07:35;6.14;;;6.13;;
82787;SDS011;72529;51.786;4.662;2023-08-30T07:10:01;5.93;;;5.91;;
82787;SDS011;72529;51.786;4.662;2023-08-30T07:12:27;6.07;;;6.04;;
82787;SDS011;72529;51.786;4.662;2023-08-30T07:14:53;6.05;;;6.03;;
82787;SDS011;72529;51.786;4.662;2023-08-30T07:17:19;6.07;;;6.07;;
82787;SDS011;72529;51.786;4.662;2023-08-30T07:19:44;5.51;;;5.51;;
82787;SDS011;72529;51.786;4.662;2023-08-30T07:22:10;5.68;;;5.67;;
82787;SDS011;72529;51.786;4.662;2023-08-30T07:24:36;5.69;;;5.68;;
82787;SDS011;72529;51.786;4.662;2023-08-30T07:27:02;5.33;;;5.31;;
82787;SDS011;72529;51.786;4.662;2023-08-30T07:29:28;5.40;;;5.40;;
82787;SDS011;72529;51.786;4.662;2023-08-30T07:31:53;5.69;;;5.65;;
82787;SDS011;72529;51.786;4.662;2023-08-30T07:34:20;5.85;;;5.82;;
82787;SDS011;72529;51.786;4.662;2023-08-30T07:36:46;5.30;;;5.30;;
82787;SDS011;72529;51.786;4.662;2023-08-30T07:39:11;5.75;;;5.75;;
82787;SDS011;72529;51.786;4.662;2023-08-30T07:41:37;6.41;;;6.41;;
82787;SDS011;72529;51.786;4.662;2023-08-30T07:44:03;8.02;;;8.02;;
82787;SDS011;72529;51.786;4.662;2023-08-30T07:46:28;8.76;;;8.76;;
82787;SDS011;72529;51.786;4.662;2023-08-30T07:48:54;8.19;;;8.19;;
82787;SDS011;72529;51.786;4.662;2023-08-30T07:51:20;7.73;;;7.73;;
82787;SDS011;72529;51.786;4.662;2023-08-30T07:53:46;8.14;;;8.14;;
82787;SDS011;72529;51.786;4.662;2023-08-30T07:56:12;7.56;;;7.56;;
82787;SDS011;72529;51.786;4.662;2023-08-30T07:58:40;8.76;;;8.76;;
82787;SDS011;72529;51.786;4.662;2023-08-30T08:01:06;9.30;;;9.30;;
82787;SDS011;72529;51.786;4.662;2023-08-30T08:03:31;9.96;;;9.96;;
82787;SDS011;72529;51.786;4.662;2023-08-30T08:05:58;8.88;;;8.88;;
82787;SDS011;72529;51.786;4.662;2023-08-30T08:08:24;9.23;;;9.23;;
82787;SDS011;72529;51.786;4.662;2023-08-30T08:10:50;9.20;;;9.20;;
82787;SDS011;72529;51.786;4.662;2023-08-30T08:13:15;9.68;;;9.68;;
82787;SDS011;72529;51.786;4.662;2023-08-30T08:15:40;9.18;;;9.18;;
82787;SDS011;72529;51.786;4.662;2023-08-30T08:18:06;9.26;;;9.26;;
82787;SDS011;72529;51.786;4.662;2023-08-30T08:20:31;9.17;;;9.17;;
82787;SDS011;72529;51.786;4.662;2023-08-30T08:22:58;9.36;;;9.36;;
82787;SDS011;72529;51.786;4.662;2023-08-30T08:25:23;8.87;;;8.87;;
82787;SDS011;72529;51.786;4.662;2023-08-30T08:27:49;9.35;;;9.35;;
82787;SDS011;72529;51.786;4.662;2023-08-30T08:30:16;8.90;;;8.90;;
82787;SDS011;72529;51.786;4.662;2023-08-30T08:32:41;9.33;;;9.33;;
82787;SDS011;72529;51.786;4.662;2023-08-30T08:35:07;9.72;;;9.72;;
82787;SDS011;72529;51.786;4.662;2023-08-30T08:37:32;9.82;;;9.82;;
82787;SDS011;72529;51.786;4.662;2023-08-30T08:39:58;10.08;;;10.08;;
82787;SDS011;72529;51.786;4.662;2023-08-30T08:42:23;9.77;;;9.77;;
82787;SDS011;72529;51.786;4.662;2023-08-30T08:44:53;9.03;;;9.03;;
82787;SDS011;72529;51.786;4.662;2023-08-30T08:47:20;8.61;;;8.61;;
82787;SDS011;72529;51.786;4.662;2023-08-30T08:49:46;5.70;;;5.70;;
82787;SDS011;72529;51.786;4.662;2023-08-30T08:52:15;5.11;;;5.11;;
82787;SDS011;72529;51.786;4.662;2023-08-30T08:54:41;4.54;;;4.54;;
82787;SDS011;72529;51.786;4.662;2023-08-30T08:57:08;4.25;;;4.23;;
82787;SDS011;72529;51.786;4.662;2023-08-30T08:59:34;4.22;;;4.20;;
82787;SDS011;72529;51.786;4.662;2023-08-30T09:02:00;4.35;;;4.35;;
82787;SDS011;72529;51.786;4.662;2023-08-30T09:04:26;3.96;;;3.95;;
82787;SDS011;72529;51.786;4.662;2023-08-30T09:06:56;3.77;;;3.77;;
82787;SDS011;72529;51.786;4.662;2023-08-30T09:09:24;3.52;;;3.52;;
82787;SDS011;72529;51.786;4.662;2023-08-30T09:11:50;3.79;;;3.79;;
82787;SDS011;72529;51.786;4.662;2023-08-30T09:14:15;3.28;;;3.28;;
82787;SDS011;72529;51.786;4.662;2023-08-30T09:16:41;3.36;;;3.36;;
82787;SDS011;72529;51.786;4.662;2023-08-30T09:19:07;3.42;;;3.42;;
82787;SDS011;72529;51.786;4.662;2023-08-30T09:21:34;3.42;;;3.42;;
82787;SDS011;72529;51.786;4.662;2023-08-30T09:26:29;3.27;;;3.27;;
82787;SDS011;72529;51.786;4.662;2023-08-30T09:29:02;3.60;;;3.60;;
82787;SDS011;72529;51.786;4.662;2023-08-30T09:31:35;3.23;;;3.23;;
82787;SDS011;72529;51.786;4.662;2023-08-30T09:34:02;3.48;;;3.48;;
82787;SDS011;72529;51.786;4.662;2023-08-30T09:36:34;3.58;;;3.58;;
82787;SDS011;72529;51.786;4.662;2023-08-30T09:39:04;4.14;;;4.14;;
82787;SDS011;72529;51.786;4.662;2023-08-30T09:41:40;4.47;;;4.45;;
82787;SDS011;72529;51.786;4.662;2023-08-30T09:44:10;4.31;;;4.30;;
82787;SDS011;72529;51.786;4.662;2023-08-30T09:46:46;4.04;;;4.03;;
82787;SDS011;72529;51.786;4.662;2023-08-30T09:49:12;4.34;;;4.32;;
82787;SDS011;72529;51.786;4.662;2023-08-30T09:51:39;4.54;;;4.54;;
82787;SDS011;72529;51.786;4.662;2023-08-30T09:54:18;4.54;;;4.54;;
82787;SDS011;72529;51.786;4.662;2023-08-30T09:56:45;4.84;;;4.84;;
82787;SDS011;72529;51.786;4.662;2023-08-30T09:59:12;4.61;;;4.61;;
82787;SDS011;72529;51.786;4.662;2023-08-30T10:01:40;4.95;;;4.95;;
82787;SDS011;72529;51.786;4.662;2023-08-30T10:04:09;4.86;;;4.86;;
82787;SDS011;72529;51.786;4.662;2023-08-30T10:06:35;4.59;;;4.58;;
82787;SDS011;72529;51.786;4.662;2023-08-30T10:09:03;4.62;;;4.62;;
82787;SDS011;72529;51.786;4.662;2023-08-30T10:11:31;5.01;;;5.00;;
82787;SDS011;72529;51.786;4.662;2023-08-30T10:13:59;5.18;;;5.17;;
82787;SDS011;72529;51.786;4.662;2023-08-30T10:16:25;5.49;;;5.48;;
82787;SDS011;72529;51.786;4.662;2023-08-30T10:19:01;4.85;;;4.85;;
82787;SDS011;72529;51.786;4.662;2023-08-30T10:21:31;4.35;;;4.35;;
82787;SDS011;72529;51.786;4.662;2023-08-30T10:24:00;4.26;;;4.25;;
82787;SDS011;72529;51.786;4.662;2023-08-30T10:26:28;4.38;;;4.37;;
82787;SDS011;72529;51.786;4.662;2023-08-30T10:28:55;4.48;;;4.40;;
82787;SDS011;72529;51.786;4.662;2023-08-30T10:31:24;4.46;;;4.34;;
82787;SDS011;72529;51.786;4.662;2023-08-30T10:33:53;4.87;;;4.68;;
82787;SDS011;72529;51.786;4.662;2023-08-30T10:36:23;4.24;;;4.08;;
82787;SDS011;72529;51.786;4.662;2023-08-30T10:38:54;3.90;;;3.73;;
82787;SDS011;72529;51.786;4.662;2023-08-30T10:41:24;4.06;;;3.88;;
82787;SDS011;72529;51.786;4.662;2023-08-30T10:43:51;3.95;;;3.77;;
82787;SDS011;72529;51.786;4.662;2023-08-30T10:46:28;3.90;;;3.72;;
82787;SDS011;72529;51.786;4.662;2023-08-30T10:49:13;4.17;;;3.95;;
82787;SDS011;72529;51.786;4.662;2023-08-30T10:51:39;4.11;;;3.88;;
82787;SDS011;72529;51.786;4.662;2023-08-30T10:54:24;4.30;;;4.03;;
82787;SDS011;72529;51.786;4.662;2023-08-30T10:59:23;4.38;;;4.17;;
82787;SDS011;72529;51.786;4.662;2023-08-30T11:01:50;4.46;;;4.18;;
82787;SDS011;72529;51.786;4.662;2023-08-30T11:04:17;4.54;;;4.24;;
82787;SDS011;72529;51.786;4.662;2023-08-30T11:06:47;4.56;;;4.24;;
82787;SDS011;72529;51.786;4.662;2023-08-30T11:09:18;4.66;;;4.24;;
82787;SDS011;72529;51.786;4.662;2023-08-30T11:11:46;4.30;;;3.92;;
82787;SDS011;72529;51.786;4.662;2023-08-30T11:14:13;4.64;;;4.28;;
82787;SDS011;72529;51.786;4.662;2023-08-30T11:16:39;3.92;;;3.63;;
82787;SDS011;72529;51.786;4.662;2023-08-30T11:19:05;3.09;;;2.95;;
82787;SDS011;72529;51.786;4.662;2023-08-30T11:21:33;3.15;;;2.99;;
82787;SDS011;72529;51.786;4.662;2023-08-30T11:24:03;3.39;;;3.15;;
82787;SDS011;72529;51.786;4.662;2023-08-30T11:26:29;3.57;;;3.21;;
82787;SDS011;72529;51.786;4.662;2023-08-30T11:28:54;3.32;;;3.00;;
82787;SDS011;72529;51.786;4.662;2023-08-30T11:31:24;3.19;;;2.87;;
82787;SDS011;72529;51.786;4.662;2023-08-30T11:33:54;2.96;;;2.69;;
82787;SDS011;72529;51.786;4.662;2023-08-30T11:36:23;3.12;;;2.84;;
82787;SDS011;72529;51.786;4.662;2023-08-30T11:38:52;3.42;;;3.03;;
82787;SDS011;72529;51.786;4.662;2023-08-30T11:41:22;3.38;;;2.91;;
82787;SDS011;72529;51.786;4.662;2023-08-30T11:43:48;3.88;;;3.23;;
82787;SDS011;72529;51.786;4.662;2023-08-30T11:46:14;3.81;;;3.18;;
82787;SDS011;72529;51.786;4.662;2023-08-30T11:48:40;3.85;;;3.30;;
82787;SDS011;72529;51.786;4.662;2023-08-30T11:51:06;3.41;;;2.92;;
82787;SDS011;72529;51.786;4.662;2023-08-30T11:53:33;3.30;;;2.85;;
82787;SDS011;72529;51.786;4.662;2023-08-30T11:56:00;3.48;;;2.98;;
82787;SDS011;72529;51.786;4.662;2023-08-30T11:58:26;3.26;;;2.81;;
82787;SDS011;72529;51.786;4.662;2023-08-30T12:00:52;3.87;;;3.30;;
82787;SDS011;72529;51.786;4.662;2023-08-30T12:03:22;3.49;;;2.97;;
82787;SDS011;72529;51.786;4.662;2023-08-30T12:05:48;3.34;;;2.84;;
82787;SDS011;72529;51.786;4.662;2023-08-30T12:08:20;3.20;;;2.74;;
82787;SDS011;72529;51.786;4.662;2023-08-30T12:10:49;3.24;;;2.82;;
82787;SDS011;72529;51.786;4.662;2023-08-30T12:13:25;3.24;;;2.85;;
82787;SDS011;72529;51.786;4.662;2023-08-30T12:15:51;3.38;;;2.92;;
82787;SDS011;72529;51.786;4.662;2023-08-30T12:18:21;3.21;;;2.80;;
82787;SDS011;72529;51.786;4.662;2023-08-30T12:23:23;3.16;;;2.78;;
82787;SDS011;72529;51.786;4.662;2023-08-30T12:26:31;3.01;;;2.63;;
82787;SDS011;72529;51.786;4.662;2023-08-30T12:28:42;2.92;;;2.57;;
82787;SDS011;72529;51.786;4.662;2023-08-30T12:31:09;2.95;;;2.57;;
82787;SDS011;72529;51.786;4.662;2023-08-30T12:33:36;3.19;;;2.83;;
82787;SDS011;72529;51.786;4.662;2023-08-30T12:36:02;3.02;;;2.70;;
82787;SDS011;72529;51.786;4.662;2023-08-30T12:38:29;3.03;;;2.68;;
82787;SDS011;72529;51.786;4.662;2023-08-30T12:40:55;2.69;;;2.37;;
82787;SDS011;72529;51.786;4.662;2023-08-30T12:43:22;2.27;;;2.01;;
82787;SDS011;72529;51.786;4.662;2023-08-30T12:45:48;2.84;;;2.48;;
82787;SDS011;72529;51.786;4.662;2023-08-30T12:48:15;2.82;;;2.39;;
82787;SDS011;72529;51.786;4.662;2023-08-30T12:50:43;2.62;;;2.25;;
82787;SDS011;72529;51.786;4.662;2023-08-30T12:53:10;2.79;;;2.39;;
82787;SDS011;72529;51.786;4.662;2023-08-30T12:55:36;2.51;;;2.19;;
82787;SDS011;72529;51.786;4.662;2023-08-30T12:58:06;2.61;;;2.26;;
82787;SDS011;72529;51.786;4.662;2023-08-30T13:00:32;2.20;;;1.91;;
82787;SDS011;72529;51.786;4.662;2023-08-30T13:02:58;2.59;;;2.26;;
82787;SDS011;72529;51.786;4.662;2023-08-30T13:05:24;2.65;;;2.28;;
82787;SDS011;72529;51.786;4.662;2023-08-30T13:07:50;2.08;;;1.79;;
82787;SDS011;72529;51.786;4.662;2023-08-30T13:10:16;2.36;;;2.04;;
82787;SDS011;72529;51.786;4.662;2023-08-30T13:12:42;2.40;;;2.08;;
82787;SDS011;72529;51.786;4.662;2023-08-30T13:15:07;3.18;;;2.79;;
82787;SDS011;72529;51.786;4.662;2023-08-30T13:17:34;2.78;;;2.48;;
82787;SDS011;72529;51.786;4.662;2023-08-30T13:19:59;2.71;;;2.43;;
82787;SDS011;72529;51.786;4.662;2023-08-30T13:22:26;2.73;;;2.46;;
82787;SDS011;72529;51.786;4.662;2023-08-30T13:24:52;2.59;;;2.31;;
82787;SDS011;72529;51.786;4.662;2023-08-30T13:27:18;2.58;;;2.33;;
82787;SDS011;72529;51.786;4.662;2023-08-30T13:29:44;2.71;;;2.48;;
82787;SDS011;72529;51.786;4.662;2023-08-30T13:32:10;2.56;;;2.31;;
82787;SDS011;72529;51.786;4.662;2023-08-30T13:34:36;2.41;;;2.21;;
82787;SDS011;72529;51.786;4.662;2023-08-30T13:37:02;2.33;;;2.18;;
82787;SDS011;72529;51.786;4.662;2023-08-30T13:39:28;2.27;;;2.14;;
82787;SDS011;72529;51.786;4.662;2023-08-30T13:41:54;2.35;;;2.17;;
82787;SDS011;72529;51.786;4.662;2023-08-30T13:44:19;2.06;;;1.88;;
82787;SDS011;72529;51.786;4.662;2023-08-30T13:46:45;2.51;;;2.27;;
82787;SDS011;72529;51.786;4.662;2023-08-30T13:49:13;2.67;;;2.43;;
82787;SDS011;72529;51.786;4.662;2023-08-30T13:51:40;2.90;;;2.66;;
82787;SDS011;72529;51.786;4.662;2023-08-30T13:54:06;2.57;;;2.38;;
82787;SDS011;72529;51.786;4.662;2023-08-30T13:56:31;2.76;;;2.55;;
82787;SDS011;72529;51.786;4.662;2023-08-30T13:58:57;2.80;;;2.61;;
82787;SDS011;72529;51.786;4.662;2023-08-30T14:01:23;2.93;;;2.75;;
82787;SDS011;72529;51.786;4.662;2023-08-30T14:03:48;2.68;;;2.53;;
82787;SDS011;72529;51.786;4.662;2023-08-30T14:06:14;2.55;;;2.39;;
82787;SDS011;72529;51.786;4.662;2023-08-30T14:08:40;2.56;;;2.43;;
82787;SDS011;72529;51.786;4.662;2023-08-30T14:11:05;2.45;;;2.30;;
82787;SDS011;72529;51.786;4.662;2023-08-30T14:13:31;2.41;;;2.24;;
82787;SDS011;72529;51.786;4.662;2023-08-30T14:16:02;2.46;;;2.24;;
82787;SDS011;72529;51.786;4.662;2023-08-30T14:18:31;2.39;;;2.18;;
82787;SDS011;72529;51.786;4.662;2023-08-30T14:20:57;2.14;;;1.96;;
82787;SDS011;72529;51.786;4.662;2023-08-30T14:23:27;2.17;;;1.98;;
82787;SDS011;72529;51.786;4.662;2023-08-30T14:26:01;2.22;;;2.01;;
82787;SDS011;72529;51.786;4.662;2023-08-30T14:28:34;2.11;;;1.89;;
82787;SDS011;72529;51.786;4.662;2023-08-30T14:31:01;2.07;;;1.83;;
82787;SDS011;72529;51.786;4.662;2023-08-30T14:33:26;2.08;;;1.87;;
82787;SDS011;72529;51.786;4.662;2023-08-30T14:35:52;1.92;;;1.75;;
82787;SDS011;72529;51.786;4.662;2023-08-30T14:38:17;2.00;;;1.82;;
82787;SDS011;72529;51.786;4.662;2023-08-30T14:40:43;2.01;;;1.79;;
82787;SDS011;72529;51.786;4.662;2023-08-30T14:43:08;1.95;;;1.72;;
82787;SDS011;72529;51.786;4.662;2023-08-30T14:45:34;1.77;;;1.57;;